sensor_id;sensor_type;location;lat;lon;timestamp;pressure;altitude;pressure_sealevel;temperature;humidity
11011;BME280;5558;42.702;23.178;2022-10-18T00:02:14;95169.25;;;6.10;93.77
11011;BME280;5558;42.702;23.178;2022-10-18T00:04:41;95162.75;;;6.06;94.74
11011;BME280;5558;42.702;23.178;2022-10-18T00:07:07;95160.94;;;6.13;94.00
11011;BME280;5558;42.702;23.178;2022-10-18T00:09:34;95157.09;;;6.16;93.44
11011;BME280;5558;42.702;23.178;2022-10-18T00:12:01;95159.53;;;6.11;93.96
11011;BME280;5558;42.702;23.178;2022-10-18T00:14:27;95154.25;;;6.11;94.39
11011;BME280;5558;42.702;23.178;2022-10-18T00:16:56;95150.44;;;6.13;94.54
11011;BME280;5558;42.702;23.178;2022-10-18T00:19:23;95149.22;;;6.09;94.94
11011;BME280;5558;42.702;23.178;2022-10-18T00:21:49;95148.22;;;6.10;95.04
11011;BME280;5558;42.702;23.178;2022-10-18T00:24:16;95150.44;;;6.07;96.16
11011;BME280;5558;42.702;23.178;2022-10-18T00:26:43;95119.47;;;5.89;95.69
11011;BME280;5558;42.702;23.178;2022-10-18T00:29:12;95134.06;;;6.05;95.61
11011;BME280;5558;42.702;23.178;2022-10-18T00:31:40;95138.91;;;6.01;95.52
11011;BME280;5558;42.702;23.178;2022-10-18T00:34:12;95131.78;;;5.95;96.30
11011;BME280;5558;42.702;23.178;2022-10-18T00:36:40;95123.50;;;5.85;97.28
11011;BME280;5558;42.702;23.178;2022-10-18T00:39:08;95124.88;;;5.81;97.43
11011;BME280;5558;42.702;23.178;2022-10-18T00:41:37;95129.28;;;5.68;98.43
11011;BME280;5558;42.702;23.178;2022-10-18T00:44:06;95122.59;;;5.59;98.85
11011;BME280;5558;42.702;23.178;2022-10-18T00:46:34;95121.00;;;5.71;99.20
11011;BME280;5558;42.702;23.178;2022-10-18T00:49:03;95120.00;;;5.72;99.05
11011;BME280;5558;42.702;23.178;2022-10-18T00:51:36;95112.50;;;5.69;98.70
11011;BME280;5558;42.702;23.178;2022-10-18T00:54:04;95113.09;;;5.58;99.28
11011;BME280;5558;42.702;23.178;2022-10-18T00:56:32;95120.75;;;5.46;100.00
11011;BME280;5558;42.702;23.178;2022-10-18T00:58:59;95119.75;;;5.54;100.00
11011;BME280;5558;42.702;23.178;2022-10-18T01:01:26;95113.31;;;5.63;100.00
11011;BME280;5558;42.702;23.178;2022-10-18T01:03:55;95094.09;;;5.56;100.00
11011;BME280;5558;42.702;23.178;2022-10-18T01:06:22;95104.44;;;5.64;99.72
11011;BME280;5558;42.702;23.178;2022-10-18T01:08:59;95103.44;;;5.71;97.47
11011;BME280;5558;42.702;23.178;2022-10-18T01:11:42;95100.00;;;5.71;96.12
11011;BME280;5558;42.702;23.178;2022-10-18T01:14:20;95099.78;;;5.66;96.74
11011;BME280;5558;42.702;23.178;2022-10-18T01:16:53;95097.56;;;5.63;97.04
11011;BME280;5558;42.702;23.178;2022-10-18T01:19:43;95096.34;;;5.59;96.44
11011;BME280;5558;42.702;23.178;2022-10-18T01:22:19;95102.53;;;5.45;97.08
11011;BME280;5558;42.702;23.178;2022-10-18T01:25:01;95103.53;;;5.37;97.80
11011;BME280;5558;42.702;23.178;2022-10-18T01:27:39;95102.31;;;5.33;99.69
11011;BME280;5558;42.702;23.178;2022-10-18T01:30:36;95091.78;;;5.27;100.00
11011;BME280;5558;42.702;23.178;2022-10-18T01:33:09;95096.00;;;5.21;100.00
11011;BME280;5558;42.702;23.178;2022-10-18T01:35:43;95052.06;;;4.89;100.00
11011;BME280;5558;42.702;23.178;2022-10-18T01:38:13;95079.59;;;5.06;100.00
11011;BME280;5558;42.702;23.178;2022-10-18T01:40:44;95064.75;;;4.85;100.00
11011;BME280;5558;42.702;23.178;2022-10-18T01:43:13;95085.69;;;5.13;100.00
11011;BME280;5558;42.702;23.178;2022-10-18T01:45:43;95083.50;;;5.23;100.00
11011;BME280;5558;42.702;23.178;2022-10-18T01:48:11;95083.91;;;5.27;100.00
11011;BME280;5558;42.702;23.178;2022-10-18T01:50:39;95080.69;;;5.25;99.12
11011;BME280;5558;42.702;23.178;2022-10-18T01:53:20;95088.53;;;5.18;100.00
11011;BME280;5558;42.702;23.178;2022-10-18T01:55:51;95077.03;;;5.19;100.00
11011;BME280;5558;42.702;23.178;2022-10-18T01:58:26;95086.94;;;5.24;100.00
11011;BME280;5558;42.702;23.178;2022-10-18T02:01:01;95086.31;;;5.22;100.00
11011;BME280;5558;42.702;23.178;2022-10-18T02:03:29;95082.31;;;5.26;100.00
11011;BME280;5558;42.702;23.178;2022-10-18T02:05:58;95076.25;;;5.25;100.00
11011;BME280;5558;42.702;23.178;2022-10-18T02:08:32;95077.81;;;5.13;100.00
11011;BME280;5558;42.702;23.178;2022-10-18T02:11:05;95069.16;;;5.19;100.00
11011;BME280;5558;42.702;23.178;2022-10-18T02:13:34;95065.06;;;5.04;100.00
11011;BME280;5558;42.702;23.178;2022-10-18T02:16:09;95071.56;;;5.14;99.88
11011;BME280;5558;42.702;23.178;2022-10-18T02:18:40;95071.94;;;5.11;100.00
11011;BME280;5558;42.702;23.178;2022-10-18T02:21:13;95064.66;;;5.07;100.00
11011;BME280;5558;42.702;23.178;2022-10-18T02:23:42;95067.72;;;5.10;99.57
11011;BME280;5558;42.702;23.178;2022-10-18T02:26:10;95069.91;;;5.07;99.63
11011;BME280;5558;42.702;23.178;2022-10-18T02:28:38;95061.19;;;4.99;100.00
11011;BME280;5558;42.702;23.178;2022-10-18T02:31:12;95067.25;;;4.93;100.00
11011;BME280;5558;42.702;23.178;2022-10-18T02:33:44;95069.66;;;4.88;100.00
11011;BME280;5558;42.702;23.178;2022-10-18T02:36:15;95079.72;;;4.85;100.00
11011;BME280;5558;42.702;23.178;2022-10-18T02:38:44;95080.47;;;4.79;100.00
11011;BME280;5558;42.702;23.178;2022-10-18T02:41:11;95084.09;;;4.78;100.00
11011;BME280;5558;42.702;23.178;2022-10-18T02:43:38;95083.69;;;4.74;100.00
11011;BME280;5558;42.702;23.178;2022-10-18T02:46:06;95084.28;;;4.70;100.00
11011;BME280;5558;42.702;23.178;2022-10-18T02:48:33;95075.19;;;4.72;100.00
11011;BME280;5558;42.702;23.178;2022-10-18T02:50:59;95081.25;;;4.73;100.00
11011;BME280;5558;42.702;23.178;2022-10-18T02:53:26;95072.59;;;4.79;100.00
11011;BME280;5558;42.702;23.178;2022-10-18T02:55:53;95075.22;;;4.79;100.00
11011;BME280;5558;42.702;23.178;2022-10-18T02:58:19;95078.44;;;4.74;100.00
11011;BME280;5558;42.702;23.178;2022-10-18T03:00:48;95078.25;;;4.76;100.00
11011;BME280;5558;42.702;23.178;2022-10-18T03:03:16;95083.88;;;4.73;100.00
11011;BME280;5558;42.702;23.178;2022-10-18T03:05:43;95082.84;;;4.67;100.00
11011;BME280;5558;42.702;23.178;2022-10-18T03:08:10;95078.97;;;4.63;100.00
11011;BME280;5558;42.702;23.178;2022-10-18T03:10:36;95079.81;;;4.70;100.00
11011;BME280;5558;42.702;23.178;2022-10-18T03:13:03;95072.19;;;4.75;100.00
11011;BME280;5558;42.702;23.178;2022-10-18T03:15:30;95075.44;;;4.77;100.00
11011;BME280;5558;42.702;23.178;2022-10-18T03:17:56;95064.28;;;4.69;100.00
11011;BME280;5558;42.702;23.178;2022-10-18T03:20:24;95077.16;;;4.64;100.00
11011;BME280;5558;42.702;23.178;2022-10-18T03:22:51;95074.31;;;4.59;100.00
11011;BME280;5558;42.702;23.178;2022-10-18T03:25:18;95083.00;;;4.59;100.00
11011;BME280;5558;42.702;23.178;2022-10-18T03:27:45;95044.72;;;4.31;100.00
11011;BME280;5558;42.702;23.178;2022-10-18T03:30:11;95075.72;;;4.55;100.00
11011;BME280;5558;42.702;23.178;2022-10-18T03:32:39;95069.50;;;4.62;100.00
11011;BME280;5558;42.702;23.178;2022-10-18T03:35:07;95080.38;;;4.59;100.00
11011;BME280;5558;42.702;23.178;2022-10-18T03:37:35;95068.25;;;4.58;100.00
11011;BME280;5558;42.702;23.178;2022-10-18T03:40:03;95074.13;;;4.60;100.00
11011;BME280;5558;42.702;23.178;2022-10-18T03:42:30;95082.59;;;4.62;100.00
11011;BME280;5558;42.702;23.178;2022-10-18T03:44:57;95074.00;;;4.75;100.00
11011;BME280;5558;42.702;23.178;2022-10-18T03:47:23;95071.41;;;4.75;100.00
11011;BME280;5558;42.702;23.178;2022-10-18T03:49:50;95076.66;;;4.81;100.00
11011;BME280;5558;42.702;23.178;2022-10-18T03:52:17;95081.91;;;4.81;100.00
11011;BME280;5558;42.702;23.178;2022-10-18T03:54:45;95090.31;;;4.70;100.00
11011;BME280;5558;42.702;23.178;2022-10-18T03:57:12;95082.72;;;4.82;100.00
11011;BME280;5558;42.702;23.178;2022-10-18T03:59:38;95082.56;;;4.90;100.00
11011;BME280;5558;42.702;23.178;2022-10-18T04:02:05;95079.97;;;4.96;100.00
11011;BME280;5558;42.702;23.178;2022-10-18T04:04:32;95084.78;;;4.93;100.00
11011;BME280;5558;42.702;23.178;2022-10-18T04:06:58;95077.72;;;4.87;100.00
11011;BME280;5558;42.702;23.178;2022-10-18T04:09:25;95081.38;;;4.99;100.00
11011;BME280;5558;42.702;23.178;2022-10-18T04:11:53;95064.44;;;4.95;100.00
11011;BME280;5558;42.702;23.178;2022-10-18T04:14:20;95065.69;;;5.06;100.00
11011;BME280;5558;42.702;23.178;2022-10-18T04:16:46;95070.50;;;5.02;100.00
11011;BME280;5558;42.702;23.178;2022-10-18T04:19:13;95064.88;;;5.05;100.00
11011;BME280;5558;42.702;23.178;2022-10-18T04:21:40;95067.28;;;5.07;100.00
11011;BME280;5558;42.702;23.178;2022-10-18T04:24:07;95069.06;;;4.99;100.00
11011;BME280;5558;42.702;23.178;2022-10-18T04:26:33;95067.03;;;4.95;100.00
11011;BME280;5558;42.702;23.178;2022-10-18T04:29:02;95077.22;;;4.77;100.00
11011;BME280;5558;42.702;23.178;2022-10-18T04:31:29;95069.44;;;4.90;100.00
11011;BME280;5558;42.702;23.178;2022-10-18T04:33:55;95073.03;;;4.82;100.00
11011;BME280;5558;42.702;23.178;2022-10-18T04:36:22;95056.59;;;4.61;100.00
11011;BME280;5558;42.702;23.178;2022-10-18T04:38:49;95088.59;;;4.90;100.00
11011;BME280;5558;42.702;23.178;2022-10-18T04:41:16;95071.25;;;4.89;100.00
11011;BME280;5558;42.702;23.178;2022-10-18T04:43:42;95073.09;;;4.95;100.00
11011;BME280;5558;42.702;23.178;2022-10-18T04:46:10;95070.50;;;5.02;100.00
11011;BME280;5558;42.702;23.178;2022-10-18T04:48:37;95074.56;;;5.11;100.00
11011;BME280;5558;42.702;23.178;2022-10-18T04:51:04;95065.75;;;5.32;100.00
11011;BME280;5558;42.702;23.178;2022-10-18T04:53:31;95064.84;;;5.72;100.00
11011;BME280;5558;42.702;23.178;2022-10-18T04:55:58;95050.75;;;6.18;99.62
11011;BME280;5558;42.702;23.178;2022-10-18T04:58:25;95045.44;;;6.64;96.13
11011;BME280;5558;42.702;23.178;2022-10-18T05:00:51;95049.69;;;7.16;92.76
11011;BME280;5558;42.702;23.178;2022-10-18T05:03:19;95057.38;;;7.62;87.80
11011;BME280;5558;42.702;23.178;2022-10-18T05:05:46;95056.06;;;8.08;84.97
11011;BME280;5558;42.702;23.178;2022-10-18T05:08:13;95048.72;;;8.59;81.17
11011;BME280;5558;42.702;23.178;2022-10-18T05:10:40;95046.34;;;9.12;78.79
11011;BME280;5558;42.702;23.178;2022-10-18T05:13:06;95030.72;;;9.58;73.43
11011;BME280;5558;42.702;23.178;2022-10-18T05:15:33;95041.03;;;10.31;70.49
11011;BME280;5558;42.702;23.178;2022-10-18T05:18:00;95043.47;;;10.90;67.86
11011;BME280;5558;42.702;23.178;2022-10-18T05:20:28;95040.41;;;11.61;63.42
11011;BME280;5558;42.702;23.178;2022-10-18T05:22:56;95040.72;;;12.20;59.29
11011;BME280;5558;42.702;23.178;2022-10-18T05:25:22;95050.53;;;12.86;56.85
11011;BME280;5558;42.702;23.178;2022-10-18T05:27:49;95048.94;;;13.45;54.51
11011;BME280;5558;42.702;23.178;2022-10-18T05:30:16;95051.69;;;13.77;52.70
11011;BME280;5558;42.702;23.178;2022-10-18T05:32:43;95058.19;;;13.86;52.02
11011;BME280;5558;42.702;23.178;2022-10-18T05:35:09;95055.06;;;13.94;51.61
11011;BME280;5558;42.702;23.178;2022-10-18T05:37:37;95046.03;;;14.21;50.46
11011;BME280;5558;42.702;23.178;2022-10-18T05:40:05;95056.09;;;14.41;49.92
11011;BME280;5558;42.702;23.178;2022-10-18T05:42:32;95056.56;;;14.64;49.78
11011;BME280;5558;42.702;23.178;2022-10-18T05:44:58;95052.13;;;15.17;48.37
11011;BME280;5558;42.702;23.178;2022-10-18T05:47:25;95058.03;;;15.75;46.71
11011;BME280;5558;42.702;23.178;2022-10-18T05:49:52;95056.56;;;16.40;44.87
11011;BME280;5558;42.702;23.178;2022-10-18T05:52:18;95054.13;;;17.29;42.67
11011;BME280;5558;42.702;23.178;2022-10-18T05:54:47;95057.16;;;17.91;41.36
11011;BME280;5558;42.702;23.178;2022-10-18T05:57:13;95048.38;;;18.29;40.19
11011;BME280;5558;42.702;23.178;2022-10-18T05:59:40;95059.19;;;18.58;39.45
11011;BME280;5558;42.702;23.178;2022-10-18T06:02:08;95055.78;;;19.14;38.37
11011;BME280;5558;42.702;23.178;2022-10-18T06:04:35;95054.28;;;19.79;37.20
11011;BME280;5558;42.702;23.178;2022-10-18T06:07:02;95051.16;;;20.33;36.17
11011;BME280;5558;42.702;23.178;2022-10-18T06:09:29;95054.59;;;20.57;35.38
11011;BME280;5558;42.702;23.178;2022-10-18T06:11:57;95048.94;;;20.91;34.62
11011;BME280;5558;42.702;23.178;2022-10-18T06:14:24;95062.75;;;21.35;34.04
11011;BME280;5558;42.702;23.178;2022-10-18T06:16:50;95061.09;;;21.52;33.59
11011;BME280;5558;42.702;23.178;2022-10-18T06:19:17;95060.22;;;20.93;34.03
11011;BME280;5558;42.702;23.178;2022-10-18T06:21:44;95058.50;;;21.02;33.99
11011;BME280;5558;42.702;23.178;2022-10-18T06:24:10;95053.19;;;20.78;34.00
11011;BME280;5558;42.702;23.178;2022-10-18T06:26:37;95057.25;;;19.78;35.20
11011;BME280;5558;42.702;23.178;2022-10-18T06:29:05;95055.31;;;17.81;38.38
11011;BME280;5558;42.702;23.178;2022-10-18T06:31:32;95058.22;;;16.96;40.85
11011;BME280;5558;42.702;23.178;2022-10-18T06:33:59;95059.44;;;15.36;43.61
11011;BME280;5558;42.702;23.178;2022-10-18T06:36:27;95055.47;;;14.97;45.64
11011;BME280;5558;42.702;23.178;2022-10-18T06:38:53;95058.47;;;15.52;44.96
11011;BME280;5558;42.702;23.178;2022-10-18T06:41:21;95060.09;;;16.95;42.25
11011;BME280;5558;42.702;23.178;2022-10-18T06:43:48;95066.75;;;16.98;41.76
11011;BME280;5558;42.702;23.178;2022-10-18T06:46:16;95057.00;;;17.62;40.78
11011;BME280;5558;42.702;23.178;2022-10-18T06:48:43;95060.25;;;18.18;39.47
11011;BME280;5558;42.702;23.178;2022-10-18T06:51:10;95062.34;;;17.62;39.97
11011;BME280;5558;42.702;23.178;2022-10-18T06:53:38;95058.78;;;15.61;43.86
11011;BME280;5558;42.702;23.178;2022-10-18T06:56:07;95061.88;;;14.06;47.47
11011;BME280;5558;42.702;23.178;2022-10-18T06:58:34;95034.75;;;12.80;50.35
11011;BME280;5558;42.702;23.178;2022-10-18T07:01:04;95069.72;;;13.26;51.66
11011;BME280;5558;42.702;23.178;2022-10-18T07:03:33;95073.41;;;11.93;56.28
11011;BME280;5558;42.702;23.178;2022-10-18T07:06:00;95069.19;;;12.08;55.83
11011;BME280;5558;42.702;23.178;2022-10-18T07:08:27;95068.47;;;11.85;57.47
11011;BME280;5558;42.702;23.178;2022-10-18T07:10:54;95069.75;;;11.82;58.11
11011;BME280;5558;42.702;23.178;2022-10-18T07:13:21;95058.53;;;11.64;59.29
11011;BME280;5558;42.702;23.178;2022-10-18T07:15:48;95065.81;;;11.57;59.95
11011;BME280;5558;42.702;23.178;2022-10-18T07:18:24;95071.44;;;10.86;63.88
11011;BME280;5558;42.702;23.178;2022-10-18T07:20:52;95072.00;;;11.11;64.72
11011;BME280;5558;42.702;23.178;2022-10-18T07:23:19;95062.91;;;11.07;65.57
11011;BME280;5558;42.702;23.178;2022-10-18T07:25:48;95057.94;;;11.11;65.81
11011;BME280;5558;42.702;23.178;2022-10-18T07:28:14;95061.38;;;11.23;65.91
11011;BME280;5558;42.702;23.178;2022-10-18T07:30:41;95054.75;;;10.51;68.91
11011;BME280;5558;42.702;23.178;2022-10-18T07:33:08;95056.81;;;10.37;71.94
11011;BME280;5558;42.702;23.178;2022-10-18T07:35:35;95056.94;;;10.42;72.93
11011;BME280;5558;42.702;23.178;2022-10-18T07:38:03;95050.38;;;9.92;74.92
11011;BME280;5558;42.702;23.178;2022-10-18T07:40:29;95044.38;;;9.85;77.59
11011;BME280;5558;42.702;23.178;2022-10-18T07:42:56;95045.84;;;10.11;76.47
11011;BME280;5558;42.702;23.178;2022-10-18T07:45:23;95040.69;;;10.50;74.16
11011;BME280;5558;42.702;23.178;2022-10-18T07:47:53;95042.44;;;10.33;75.58
11011;BME280;5558;42.702;23.178;2022-10-18T07:50:20;95041.63;;;10.67;75.73
11011;BME280;5558;42.702;23.178;2022-10-18T07:52:47;94997.44;;;10.45;73.57
11011;BME280;5558;42.702;23.178;2022-10-18T07:55:15;95042.06;;;10.87;73.59
11011;BME280;5558;42.702;23.178;2022-10-18T07:57:41;95040.22;;;10.88;72.41
11011;BME280;5558;42.702;23.178;2022-10-18T08:00:09;95041.38;;;10.92;74.08
11011;BME280;5558;42.702;23.178;2022-10-18T08:02:36;95034.03;;;10.94;71.97
11011;BME280;5558;42.702;23.178;2022-10-18T08:05:03;95031.47;;;10.87;73.66
11011;BME280;5558;42.702;23.178;2022-10-18T08:07:30;95027.91;;;10.93;76.34
11011;BME280;5558;42.702;23.178;2022-10-18T08:09:57;95021.91;;;10.98;76.24
11011;BME280;5558;42.702;23.178;2022-10-18T08:12:25;95012.91;;;11.11;73.20
11011;BME280;5558;42.702;23.178;2022-10-18T08:14:52;95024.53;;;11.21;71.22
11011;BME280;5558;42.702;23.178;2022-10-18T08:17:19;95023.22;;;11.24;71.84
11011;BME280;5558;42.702;23.178;2022-10-18T08:19:45;95014.03;;;11.15;72.71
11011;BME280;5558;42.702;23.178;2022-10-18T08:22:12;95011.31;;;10.98;73.35
11011;BME280;5558;42.702;23.178;2022-10-18T08:24:39;95013.25;;;11.14;72.41
11011;BME280;5558;42.702;23.178;2022-10-18T08:27:06;94992.97;;;11.08;72.84
11011;BME280;5558;42.702;23.178;2022-10-18T08:29:34;95012.97;;;11.27;72.67
11011;BME280;5558;42.702;23.178;2022-10-18T08:32:01;95001.72;;;11.48;71.15
11011;BME280;5558;42.702;23.178;2022-10-18T08:34:28;94991.19;;;11.65;70.40
11011;BME280;5558;42.702;23.178;2022-10-18T08:36:54;94974.66;;;11.46;70.70
11011;BME280;5558;42.702;23.178;2022-10-18T08:39:21;94984.84;;;11.82;69.03
11011;BME280;5558;42.702;23.178;2022-10-18T08:44:43;94974.91;;;11.89;69.29
11011;BME280;5558;42.702;23.178;2022-10-18T08:47:12;94975.97;;;11.88;68.52
11011;BME280;5558;42.702;23.178;2022-10-18T08:49:42;94973.31;;;12.05;68.28
11011;BME280;5558;42.702;23.178;2022-10-18T08:52:15;94974.28;;;12.15;68.30
11011;BME280;5558;42.702;23.178;2022-10-18T08:54:53;94970.31;;;12.35;69.67
11011;BME280;5558;42.702;23.178;2022-10-18T08:57:21;94969.22;;;12.31;68.29
11011;BME280;5558;42.702;23.178;2022-10-18T08:59:49;94967.50;;;12.41;68.03
11011;BME280;5558;42.702;23.178;2022-10-18T09:02:25;94962.16;;;12.58;66.29
11011;BME280;5558;42.702;23.178;2022-10-18T09:05:01;94971.16;;;12.57;66.33
11011;BME280;5558;42.702;23.178;2022-10-18T09:07:49;94961.50;;;12.89;63.27
11011;BME280;5558;42.702;23.178;2022-10-18T09:10:28;94957.22;;;13.04;63.49
11011;BME280;5558;42.702;23.178;2022-10-18T09:13:16;94958.78;;;13.22;62.88
11011;BME280;5558;42.702;23.178;2022-10-18T09:15:54;94957.22;;;13.26;62.70
11011;BME280;5558;42.702;23.178;2022-10-18T09:18:35;94958.19;;;13.41;60.66
11011;BME280;5558;42.702;23.178;2022-10-18T09:21:14;94953.75;;;13.47;62.05
11011;BME280;5558;42.702;23.178;2022-10-18T09:23:45;94947.47;;;13.58;61.84
11011;BME280;5558;42.702;23.178;2022-10-18T09:26:15;94943.81;;;13.64;60.49
11011;BME280;5558;42.702;23.178;2022-10-18T09:28:53;94946.38;;;13.54;59.12
11011;BME280;5558;42.702;23.178;2022-10-18T09:31:32;94939.44;;;13.53;59.55
11011;BME280;5558;42.702;23.178;2022-10-18T09:34:04;94938.50;;;13.64;58.19
11011;BME280;5558;42.702;23.178;2022-10-18T09:36:36;94936.47;;;13.76;57.17
11011;BME280;5558;42.702;23.178;2022-10-18T09:39:08;94935.59;;;13.97;56.69
11011;BME280;5558;42.702;23.178;2022-10-18T09:41:39;94937.28;;;14.08;55.06
11011;BME280;5558;42.702;23.178;2022-10-18T09:44:13;94943.34;;;14.04;55.22
11011;BME280;5558;42.702;23.178;2022-10-18T09:46:46;94935.72;;;14.12;55.53
11011;BME280;5558;42.702;23.178;2022-10-18T09:49:17;94924.66;;;14.25;56.08
11011;BME280;5558;42.702;23.178;2022-10-18T09:51:46;94922.41;;;14.44;56.73
11011;BME280;5558;42.702;23.178;2022-10-18T09:54:20;94924.28;;;14.48;53.33
11011;BME280;5558;42.702;23.178;2022-10-18T09:56:51;94925.13;;;14.54;53.30
11011;BME280;5558;42.702;23.178;2022-10-18T09:59:29;94916.06;;;14.55;53.90
11011;BME280;5558;42.702;23.178;2022-10-18T10:01:58;94924.63;;;14.62;53.13
11011;BME280;5558;42.702;23.178;2022-10-18T10:04:25;94917.47;;;14.68;53.08
11011;BME280;5558;42.702;23.178;2022-10-18T10:06:54;94914.53;;;14.64;53.19
11011;BME280;5558;42.702;23.178;2022-10-18T10:09:25;94907.38;;;14.75;53.17
11011;BME280;5558;42.702;23.178;2022-10-18T10:11:54;94901.56;;;14.83;53.03
11011;BME280;5558;42.702;23.178;2022-10-18T10:14:22;94894.59;;;14.82;53.02
11011;BME280;5558;42.702;23.178;2022-10-18T10:16:52;94894.16;;;15.00;52.24
11011;BME280;5558;42.702;23.178;2022-10-18T10:19:27;94883.44;;;14.85;52.00
11011;BME280;5558;42.702;23.178;2022-10-18T10:21:57;94880.84;;;15.05;52.02
11011;BME280;5558;42.702;23.178;2022-10-18T10:24:33;94878.19;;;15.10;54.42
11011;BME280;5558;42.702;23.178;2022-10-18T10:27:03;94874.22;;;15.22;52.94
11011;BME280;5558;42.702;23.178;2022-10-18T10:29:52;94874.78;;;15.34;52.02
11011;BME280;5558;42.702;23.178;2022-10-18T10:32:26;94879.13;;;15.45;52.37
11011;BME280;5558;42.702;23.178;2022-10-18T10:34:54;94865.53;;;15.52;50.76
11011;BME280;5558;42.702;23.178;2022-10-18T10:37:31;94869.53;;;15.64;49.64
11011;BME280;5558;42.702;23.178;2022-10-18T10:40:20;94852.47;;;15.60;49.69
11011;BME280;5558;42.702;23.178;2022-10-18T10:43:11;94833.75;;;15.40;48.79
11011;BME280;5558;42.702;23.178;2022-10-18T10:45:53;94843.09;;;15.63;47.60
11011;BME280;5558;42.702;23.178;2022-10-18T10:48:21;94838.31;;;15.65;46.79
11011;BME280;5558;42.702;23.178;2022-10-18T10:50:52;94823.63;;;15.47;47.04
11011;BME280;5558;42.702;23.178;2022-10-18T10:53:38;94830.28;;;15.65;46.82
11011;BME280;5558;42.702;23.178;2022-10-18T10:56:15;94815.34;;;15.84;47.61
11011;BME280;5558;42.702;23.178;2022-10-18T10:58:42;94816.13;;;16.05;45.84
11011;BME280;5558;42.702;23.178;2022-10-18T11:01:33;94804.34;;;16.21;45.14
11011;BME280;5558;42.702;23.178;2022-10-18T11:04:02;94798.72;;;16.22;45.10
11011;BME280;5558;42.702;23.178;2022-10-18T11:06:52;94800.31;;;16.28;44.55
11011;BME280;5558;42.702;23.178;2022-10-18T11:09:43;94806.44;;;16.29;44.51
11011;BME280;5558;42.702;23.178;2022-10-18T11:12:27;94798.16;;;16.35;43.88
11011;BME280;5558;42.702;23.178;2022-10-18T11:15:06;94792.25;;;16.43;42.57
11011;BME280;5558;42.702;23.178;2022-10-18T11:17:41;94789.03;;;16.56;42.27
11011;BME280;5558;42.702;23.178;2022-10-18T11:20:22;94795.16;;;16.62;40.11
11011;BME280;5558;42.702;23.178;2022-10-18T11:22:59;94789.25;;;16.65;40.81
11011;BME280;5558;42.702;23.178;2022-10-18T11:25:48;94777.19;;;16.77;40.41
11011;BME280;5558;42.702;23.178;2022-10-18T11:28:27;94779.06;;;16.77;40.24
11011;BME280;5558;42.702;23.178;2022-10-18T11:31:08;94770.19;;;16.81;39.42
11011;BME280;5558;42.702;23.178;2022-10-18T11:33:47;94770.75;;;16.78;39.86
11011;BME280;5558;42.702;23.178;2022-10-18T11:36:25;94754.03;;;17.01;41.90
11011;BME280;5558;42.702;23.178;2022-10-18T11:38:56;94747.06;;;17.05;39.23
11011;BME280;5558;42.702;23.178;2022-10-18T11:41:36;94746.50;;;17.08;38.73
11011;BME280;5558;42.702;23.178;2022-10-18T11:44:13;94744.31;;;17.16;38.91
11011;BME280;5558;42.702;23.178;2022-10-18T11:46:53;94748.31;;;17.18;38.98
11011;BME280;5558;42.702;23.178;2022-10-18T11:49:33;94739.41;;;17.28;37.84
11011;BME280;5558;42.702;23.178;2022-10-18T11:52:08;94743.63;;;17.34;39.04
11011;BME280;5558;42.702;23.178;2022-10-18T11:54:58;94737.50;;;17.33;37.74
11011;BME280;5558;42.702;23.178;2022-10-18T11:57:43;94733.78;;;17.29;36.61
11011;BME280;5558;42.702;23.178;2022-10-18T12:00:22;94715.19;;;17.09;37.68
11011;BME280;5558;42.702;23.178;2022-10-18T12:03:11;94713.78;;;17.22;37.76
11011;BME280;5558;42.702;23.178;2022-10-18T12:05:42;94706.84;;;17.16;37.79
11011;BME280;5558;42.702;23.178;2022-10-18T12:08:12;94711.56;;;17.29;37.65
11011;BME280;5558;42.702;23.178;2022-10-18T12:10:46;94695.41;;;17.39;36.68
11011;BME280;5558;42.702;23.178;2022-10-18T12:13:17;94705.78;;;17.55;37.13
11011;BME280;5558;42.702;23.178;2022-10-18T12:15:47;94695.78;;;17.61;36.71
11011;BME280;5558;42.702;23.178;2022-10-18T12:18:16;94687.47;;;17.62;34.81
11011;BME280;5558;42.702;23.178;2022-10-18T12:20:47;94673.72;;;17.45;35.54
11011;BME280;5558;42.702;23.178;2022-10-18T12:23:16;94681.97;;;17.49;35.56
11011;BME280;5558;42.702;23.178;2022-10-18T12:25:50;94682.22;;;17.52;36.29
11011;BME280;5558;42.702;23.178;2022-10-18T12:28:28;94674.09;;;17.62;36.00
11011;BME280;5558;42.702;23.178;2022-10-18T12:31:05;94676.94;;;17.71;35.59
11011;BME280;5558;42.702;23.178;2022-10-18T12:33:36;94675.59;;;17.73;35.44
11011;BME280;5558;42.702;23.178;2022-10-18T12:36:14;94674.56;;;17.93;33.49
11011;BME280;5558;42.702;23.178;2022-10-18T12:38:46;94668.03;;;18.04;31.89
11011;BME280;5558;42.702;23.178;2022-10-18T12:41:20;94669.84;;;18.08;32.61
11011;BME280;5558;42.702;23.178;2022-10-18T12:43:51;94664.31;;;18.23;32.18
11011;BME280;5558;42.702;23.178;2022-10-18T12:46:18;94661.78;;;18.32;32.87
11011;BME280;5558;42.702;23.178;2022-10-18T12:48:50;94650.56;;;18.06;32.04
11011;BME280;5558;42.702;23.178;2022-10-18T12:51:25;94651.72;;;18.00;31.65
11011;BME280;5558;42.702;23.178;2022-10-18T12:54:07;94649.59;;;18.21;31.86
11011;BME280;5558;42.702;23.178;2022-10-18T12:56:38;94641.69;;;18.11;31.68
11011;BME280;5558;42.702;23.178;2022-10-18T13:02:24;94643.47;;;18.39;29.51
11011;BME280;5558;42.702;23.178;2022-10-18T13:04:51;94642.72;;;18.34;29.61
11011;BME280;5558;42.702;23.178;2022-10-18T13:07:31;94641.94;;;18.33;30.41
11011;BME280;5558;42.702;23.178;2022-10-18T13:13:35;94633.59;;;18.40;30.86
11011;BME280;5558;42.702;23.178;2022-10-18T13:16:19;94631.19;;;18.57;28.07
11011;BME280;5558;42.702;23.178;2022-10-18T13:18:52;94629.88;;;18.54;26.18
11011;BME280;5558;42.702;23.178;2022-10-18T13:21:29;94629.06;;;18.54;26.15
11011;BME280;5558;42.702;23.178;2022-10-18T13:24:17;94621.19;;;18.62;25.49
11011;BME280;5558;42.702;23.178;2022-10-18T13:26:57;94622.41;;;18.70;26.04
11011;BME280;5558;42.702;23.178;2022-10-18T13:29:51;94620.53;;;18.70;25.92
11011;BME280;5558;42.702;23.178;2022-10-18T13:32:23;94604.44;;;18.70;26.56